Terminal Aerodrome Forecast
Issued by NWS

Home | Current Version | Previous Version | Text Only | Print | Product List | Glossary On
Versions: 1 2 3 4 5 6 7 8 9 10 11 12 13
000
FTUS46 KPDT 280522
TAFRDM
TAF
KRDM 280522Z 2806/2906 VRB03KT P6SM BKN200
     FM281900 30010G17KT P6SM SCT120 BKN150
     FM290000 33010G17KT P6SM OVC250
     FM290100 35008KT P6SM OVC250
     FM290500 31010KT P6SM OVC250=

USA.gov is the U.S. government's official web portal to all federal, state and local government web resources and services.